Weather at Angads Airport

Public forecast

Using degrees Celsius for public forecast. Weather courtesy of forecast.io.

Current aviation weather report (METAR) for Angads Airport

Retrieved 2020/09/20 10:30 UTC (0 seconds ago):

GMFO 201030Z VRB03KT CAVOK 27/12 Q1020 NOSIG

Aviation forecast (TAF) for Angads Airport

Retrieved 2020/09/20 06:18 UTC (4 hours ago):

TAF GMFO 200500Z 2006/2112 VRB02KT CAVOK BECMG 2014/2018 34016KT